Time;durP1;ratioP1;P1;durP2;ratioP2;P2;SDS_P1;SDS_P2;PMS_P1;PMS_P2;Temp;Humidity;BMP_temperature;BMP_pressure;BME280_temperature;BME280_humidity;BME280_pressure;Samples;Min_cycle;Max_cycle;Signal;HPM_P1;HPM_P2
2023/07/04 00:00:12;;;;;;;;;;;23.90;50.00;;;;;;4914277;29;20226;-89
2023/07/04 00:02:39;;;;;;;;;;;23.90;49.60;;;;;;4902616;29;19911;-90
2023/07/04 00:05:05;;;;;;;;;;;23.90;49.60;;;;;;4899406;29;19915;-89
2023/07/04 00:07:34;;;;;;;;;;;23.80;49.50;;;;;;4910570;29;19911;-89
2023/07/04 00:09:59;;;;;;;;;;;23.80;49.50;;;;;;4915311;29;19911;-89
2023/07/04 00:12:25;;;;;;;;;;;23.80;49.50;;;;;;4899072;29;19987;-89
2023/07/04 00:14:51;;;;;;;;;;;23.80;49.50;;;;;;4905835;29;19977;-89
2023/07/04 00:17:18;;;;;;;;;;;23.80;49.50;;;;;;4901124;29;19969;-90
2023/07/04 00:19:44;;;;;;;;;;;23.80;49.50;;;;;;4905375;29;19911;-89
2023/07/04 00:22:10;;;;;;;;;;;23.80;49.50;;;;;;4893666;29;19942;-88
2023/07/04 00:24:37;;;;;;;;;;;23.70;49.50;;;;;;4921127;29;19985;-89
2023/07/04 00:27:02;;;;;;;;;;;23.70;49.50;;;;;;4901597;29;19915;-89
2023/07/04 00:29:28;;;;;;;;;;;23.70;49.50;;;;;;4874772;29;19911;-89
2023/07/04 00:31:54;;;;;;;;;;;23.70;49.50;;;;;;4898936;29;20006;-88
2023/07/04 00:34:21;;;;;;;;;;;23.70;49.50;;;;;;4902766;29;19926;-89
2023/07/04 00:36:47;;;;;;;;;;;23.70;49.50;;;;;;4898822;29;20001;-88
2023/07/04 00:39:12;;;;;;;;;;;23.70;49.50;;;;;;4904309;29;19977;-89
2023/07/04 00:41:40;;;;;;;;;;;23.70;49.50;;;;;;4915327;29;19923;-89
2023/07/04 00:44:15;;;;;;;;;;;23.70;49.50;;;;;;4901281;29;19915;-89
2023/07/04 00:46:51;;;;;;;;;;;23.70;49.50;;;;;;4911577;29;19954;-89
2023/07/04 00:49:43;;;;;;;;;;;23.70;49.50;;;;;;4911981;29;20243;-88
2023/07/04 00:52:11;;;;;;;;;;;23.70;49.50;;;;;;4894574;29;20299;-89
2023/07/04 00:54:45;;;;;;;;;;;23.70;49.50;;;;;;4905130;29;20172;-88
2023/07/04 00:57:13;;;;;;;;;;;23.60;49.50;;;;;;4903560;29;19919;-89
2023/07/04 00:59:43;;;;;;;;;;;23.60;49.50;;;;;;4894464;29;19966;-89
2023/07/04 01:02:10;;;;;;;;;;;23.60;49.50;;;;;;4900782;29;19930;-89
2023/07/04 01:04:35;;;;;;;;;;;23.60;49.50;;;;;;4894651;29;19977;-89
2023/07/04 01:07:10;;;;;;;;;;;23.60;49.50;;;;;;4905880;29;19958;-89
2023/07/04 01:09:38;;;;;;;;;;;23.60;49.50;;;;;;4907515;29;20014;-89
2023/07/04 01:12:04;;;;;;;;;;;23.60;49.50;;;;;;4905654;29;19962;-88
2023/07/04 01:14:29;;;;;;;;;;;23.60;49.50;;;;;;4906221;29;19911;-89
2023/07/04 01:16:55;;;;;;;;;;;23.60;49.50;;;;;;4904262;29;19921;-88
2023/07/04 01:19:26;;;;;;;;;;;23.50;49.40;;;;;;4906307;29;20018;-88
2023/07/04 01:21:55;;;;;;;;;;;23.60;49.50;;;;;;4915650;29;20245;-88
2023/07/04 01:24:26;;;;;;;;;;;23.50;49.40;;;;;;4899563;29;20260;-88
2023/07/04 01:26:52;;;;;;;;;;;23.50;49.50;;;;;;4903282;29;19942;-89
2023/07/04 01:29:18;;;;;;;;;;;23.50;49.50;;;;;;4899570;29;20048;-89
2023/07/04 01:31:44;;;;;;;;;;;23.50;49.50;;;;;;4902236;29;19911;-89
2023/07/04 01:34:10;;;;;;;;;;;23.50;49.50;;;;;;4900099;29;19958;-88
2023/07/04 01:36:40;;;;;;;;;;;23.50;49.50;;;;;;4901352;29;19911;-88
2023/07/04 01:39:07;;;;;;;;;;;23.50;49.50;;;;;;4899224;29;19919;-88
2023/07/04 01:41:32;;;;;;;;;;;23.50;49.50;;;;;;4907273;29;19910;-89
2023/07/04 01:44:00;;;;;;;;;;;23.50;49.50;;;;;;4903563;29;19944;-89
2023/07/04 01:46:25;;;;;;;;;;;23.50;49.50;;;;;;4903922;29;19911;-88
2023/07/04 01:48:51;;;;;;;;;;;23.50;49.50;;;;;;4909894;29;19922;-88
2023/07/04 01:51:37;;;;;;;;;;;23.50;49.50;;;;;;4903322;29;19930;-90
2023/07/04 01:54:03;;;;;;;;;;;23.40;49.40;;;;;;4894722;29;19934;-89
2023/07/04 01:56:30;;;;;;;;;;;23.40;49.50;;;;;;4904306;29;19979;-89
2023/07/04 01:58:55;;;;;;;;;;;23.40;49.50;;;;;;4901136;29;19943;-88
2023/07/04 02:01:36;;;;;;;;;;;23.40;49.50;;;;;;4902358;29;19969;-88
2023/07/04 02:04:01;;;;;;;;;;;23.40;49.50;;;;;;4917328;29;19958;-88
2023/07/04 02:06:28;;;;;;;;;;;23.40;49.50;;;;;;4912471;29;19943;-89
2023/07/04 02:08:54;;;;;;;;;;;23.40;49.50;;;;;;4900372;29;20356;-88
2023/07/04 02:11:20;;;;;;;;;;;23.40;49.50;;;;;;4911786;29;20021;-88
2023/07/04 02:13:45;;;;;;;;;;;23.40;49.50;;;;;;4912220;29;19966;-88
2023/07/04 02:16:11;;;;;;;;;;;23.40;49.50;;;;;;4913511;29;19918;-88
2023/07/04 02:18:37;;;;;;;;;;;23.30;49.50;;;;;;4905849;29;20014;-89
2023/07/04 02:21:02;;;;;;;;;;;23.30;49.50;;;;;;4915542;29;20303;-88
2023/07/04 02:23:28;;;;;;;;;;;23.30;49.50;;;;;;4905676;29;19926;-88
2023/07/04 02:25:54;;;;;;;;;;;23.30;49.50;;;;;;4911158;29;19998;-88
2023/07/04 02:28:20;;;;;;;;;;;23.30;49.50;;;;;;4912927;29;20272;-89
2023/07/04 02:30:56;;;;;;;;;;;23.30;49.50;;;;;;4917620;29;19911;-89
2023/07/04 02:33:21;;;;;;;;;;;23.30;49.50;;;;;;4906185;29;20053;-89
2023/07/04 02:35:47;;;;;;;;;;;23.30;49.50;;;;;;4905270;29;20280;-89
2023/07/04 02:38:13;;;;;;;;;;;23.30;49.60;;;;;;4914731;29;19912;-89
2023/07/04 02:40:43;;;;;;;;;;;23.30;49.50;;;;;;4900986;29;20301;-89
2023/07/04 02:43:09;;;;;;;;;;;23.20;49.50;;;;;;4899672;29;19911;-88
2023/07/04 02:45:36;;;;;;;;;;;23.20;49.50;;;;;;4924518;29;20280;-89
2023/07/04 02:48:01;;;;;;;;;;;23.20;49.50;;;;;;4911084;29;19949;-88
2023/07/04 02:50:27;;;;;;;;;;;23.20;49.50;;;;;;4903188;29;20201;-89
2023/07/04 02:52:52;;;;;;;;;;;23.20;49.50;;;;;;4902294;29;20353;-89
2023/07/04 02:55:18;;;;;;;;;;;23.20;49.50;;;;;;4914754;29;19915;-90
2023/07/04 02:57:44;;;;;;;;;;;23.20;49.50;;;;;;4901009;29;20212;-89
2023/07/04 03:00:10;;;;;;;;;;;23.20;49.50;;;;;;4907273;29;20161;-90
2023/07/04 03:02:35;;;;;;;;;;;23.20;49.50;;;;;;4893860;29;19911;-89
2023/07/04 03:05:01;;;;;;;;;;;23.20;49.50;;;;;;4900564;29;20208;-89
2023/07/04 03:07:26;;;;;;;;;;;23.20;49.50;;;;;;4914760;29;19922;-89
2023/07/04 03:09:52;;;;;;;;;;;23.20;49.50;;;;;;4903748;29;19947;-89
2023/07/04 03:12:18;;;;;;;;;;;23.10;49.50;;;;;;4900847;29;20312;-89
2023/07/04 03:14:44;;;;;;;;;;;23.10;49.50;;;;;;4905115;29;20490;-90
2023/07/04 03:17:09;;;;;;;;;;;23.10;49.50;;;;;;4903817;29;19915;-89
2023/07/04 03:19:35;;;;;;;;;;;23.10;49.50;;;;;;4904321;29;19986;-89
2023/07/04 03:22:00;;;;;;;;;;;23.10;49.50;;;;;;4900993;29;19966;-90
2023/07/04 03:24:26;;;;;;;;;;;23.10;49.50;;;;;;4907582;29;19926;-91
2023/07/04 03:26:52;;;;;;;;;;;23.10;49.60;;;;;;4917403;29;19915;-89
2023/07/04 03:29:18;;;;;;;;;;;23.10;49.60;;;;;;4903492;29;19916;-89
2023/07/04 03:31:43;;;;;;;;;;;23.10;49.50;;;;;;4903495;29;19911;-89
2023/07/04 03:34:09;;;;;;;;;;;23.10;49.50;;;;;;4899916;29;20010;-90
2023/07/04 03:36:35;;;;;;;;;;;23.10;49.50;;;;;;4905172;29;19910;-89
2023/07/04 03:39:00;;;;;;;;;;;23.10;49.50;;;;;;4907890;29;19998;-89
2023/07/04 03:41:26;;;;;;;;;;;23.10;49.60;;;;;;4906952;29;19943;-89
2023/07/04 03:43:51;;;;;;;;;;;23.10;49.50;;;;;;4924961;29;19947;-89
2023/07/04 03:46:17;;;;;;;;;;;23.00;49.50;;;;;;4909507;29;19912;-89
2023/07/04 03:48:43;;;;;;;;;;;23.00;49.50;;;;;;4905400;29;19910;-89
2023/07/04 03:51:09;;;;;;;;;;;23.00;49.50;;;;;;4913380;29;19915;-89
2023/07/04 03:53:37;;;;;;;;;;;23.00;49.60;;;;;;4898832;29;19908;-90
2023/07/04 03:56:04;;;;;;;;;;;23.00;49.50;;;;;;4907245;29;19922;-89
2023/07/04 03:58:29;;;;;;;;;;;23.00;49.50;;;;;;4912789;29;20288;-90
2023/07/04 04:00:55;;;;;;;;;;;23.00;49.50;;;;;;4901377;29;20014;-89
2023/07/04 04:03:21;;;;;;;;;;;23.00;49.60;;;;;;4909146;29;19915;-89
2023/07/04 04:05:47;;;;;;;;;;;23.00;49.50;;;;;;4908822;29;19970;-90
2023/07/04 04:08:12;;;;;;;;;;;23.00;49.50;;;;;;4898213;29;20273;-90
2023/07/04 04:10:38;;;;;;;;;;;23.00;49.50;;;;;;4898108;29;19915;-89
2023/07/04 04:13:03;;;;;;;;;;;23.00;49.50;;;;;;4916864;29;19963;-89
2023/07/04 04:15:29;;;;;;;;;;;23.00;49.50;;;;;;4894917;29;20018;-90
2023/07/04 04:17:55;;;;;;;;;;;23.00;49.50;;;;;;4902540;29;20082;-90
2023/07/04 04:20:21;;;;;;;;;;;23.00;49.50;;;;;;4896490;29;19912;-90
2023/07/04 04:22:47;;;;;;;;;;;23.00;49.50;;;;;;4911197;29;19978;-89
2023/07/04 04:25:14;;;;;;;;;;;23.00;49.50;;;;;;4907267;29;19926;-90
2023/07/04 04:27:40;;;;;;;;;;;23.00;49.50;;;;;;4904659;29;19922;-89
2023/07/04 04:30:08;;;;;;;;;;;23.00;49.50;;;;;;4898987;29;19911;-90
2023/07/04 04:32:35;;;;;;;;;;;23.00;49.50;;;;;;4900170;29;19911;-89
2023/07/04 04:35:01;;;;;;;;;;;23.00;49.50;;;;;;4897227;29;19911;-89
2023/07/04 04:37:27;;;;;;;;;;;23.00;49.40;;;;;;4911328;29;20002;-89
2023/07/04 04:39:52;;;;;;;;;;;23.00;49.40;;;;;;4897240;29;19975;-89
2023/07/04 04:42:22;;;;;;;;;;;23.00;49.60;;;;;;4905150;29;20642;-89
2023/07/04 04:44:49;;;;;;;;;;;23.00;49.50;;;;;;4912203;29;19916;-90
2023/07/04 04:47:15;;;;;;;;;;;23.10;49.50;;;;;;4911834;29;20215;-90
2023/07/04 04:49:40;;;;;;;;;;;23.10;49.50;;;;;;4918390;29;19974;-91
2023/07/04 04:52:06;;;;;;;;;;;23.10;49.50;;;;;;4899908;29;19933;-90
2023/07/04 04:54:33;;;;;;;;;;;23.10;49.40;;;;;;4900444;29;19912;-91
2023/07/04 04:56:59;;;;;;;;;;;23.10;49.40;;;;;;4898953;29;19927;-89
2023/07/04 04:59:24;;;;;;;;;;;23.10;49.40;;;;;;4926510;29;19911;-89
2023/07/04 05:01:50;;;;;;;;;;;23.10;49.30;;;;;;4898201;29;19912;-90
2023/07/04 05:04:16;;;;;;;;;;;23.10;49.30;;;;;;4902806;29;19984;-90
2023/07/04 05:06:42;;;;;;;;;;;23.10;49.30;;;;;;4898197;29;19943;-90
2023/07/04 05:09:07;;;;;;;;;;;23.20;49.30;;;;;;4897072;29;20062;-89
2023/07/04 05:11:33;;;;;;;;;;;23.20;49.20;;;;;;4896472;29;20021;-90
2023/07/04 05:14:00;;;;;;;;;;;23.20;49.20;;;;;;4903272;29;20002;-90
2023/07/04 05:16:25;;;;;;;;;;;23.20;49.10;;;;;;4895903;29;19950;-90
2023/07/04 05:18:51;;;;;;;;;;;23.30;49.20;;;;;;4897908;29;20112;-89
2023/07/04 05:21:19;;;;;;;;;;;23.30;49.10;;;;;;4897924;29;19912;-89
2023/07/04 05:23:45;;;;;;;;;;;23.30;49.10;;;;;;4896818;29;20311;-90
2023/07/04 05:26:16;;;;;;;;;;;23.30;49.00;;;;;;4896371;29;20017;-89
2023/07/04 05:28:41;;;;;;;;;;;23.40;49.00;;;;;;4885797;29;19954;-89
2023/07/04 05:31:08;;;;;;;;;;;23.40;49.00;;;;;;4897077;29;20144;-91
2023/07/04 05:33:34;;;;;;;;;;;23.40;49.00;;;;;;4891883;29;19912;-89
2023/07/04 05:36:08;;;;;;;;;;;23.40;48.90;;;;;;4891509;29;19911;-89
2023/07/04 05:38:34;;;;;;;;;;;23.50;48.90;;;;;;4882682;29;20212;-90
2023/07/04 05:41:00;;;;;;;;;;;23.50;48.90;;;;;;4894169;29;19969;-89
2023/07/04 05:43:26;;;;;;;;;;;23.50;48.80;;;;;;4892169;29;19965;-90
2023/07/04 05:45:52;;;;;;;;;;;23.50;48.80;;;;;;4903153;29;19936;-89
2023/07/04 05:48:18;;;;;;;;;;;23.50;48.80;;;;;;4899354;29;19922;-90
2023/07/04 05:50:51;;;;;;;;;;;23.50;48.80;;;;;;4897512;29;20309;-89
2023/07/04 05:53:17;;;;;;;;;;;23.50;48.70;;;;;;4900669;29;20069;-89
2023/07/04 05:55:43;;;;;;;;;;;23.50;48.80;;;;;;4890057;29;19922;-90
2023/07/04 05:58:08;;;;;;;;;;;23.60;48.80;;;;;;4891625;29;19912;-89
2023/07/04 06:00:34;;;;;;;;;;;23.60;48.80;;;;;;4889197;29;20246;-89
2023/07/04 06:03:03;;;;;;;;;;;23.60;48.70;;;;;;4890391;29;19922;-89
2023/07/04 06:05:29;;;;;;;;;;;23.70;48.70;;;;;;4888719;29;20150;-90
2023/07/04 06:07:55;;;;;;;;;;;23.70;48.70;;;;;;4883117;29;19912;-89
2023/07/04 06:10:21;;;;;;;;;;;23.70;48.70;;;;;;4891479;29;19950;-89
2023/07/04 06:12:46;;;;;;;;;;;23.70;48.60;;;;;;4890008;29;20016;-89
2023/07/04 06:15:14;;;;;;;;;;;23.70;48.60;;;;;;4890737;29;19919;-90
2023/07/04 06:17:40;;;;;;;;;;;23.70;48.70;;;;;;4891007;29;20003;-90
2023/07/04 06:20:06;;;;;;;;;;;23.70;48.70;;;;;;4903169;29;20240;-89
2023/07/04 06:22:31;;;;;;;;;;;23.70;48.70;;;;;;4893655;29;20085;-89
2023/07/04 06:24:57;;;;;;;;;;;23.70;48.70;;;;;;4901108;29;19926;-89
2023/07/04 06:27:24;;;;;;;;;;;23.70;48.70;;;;;;4893419;29;19923;-89
2023/07/04 06:29:53;;;;;;;;;;;23.70;48.80;;;;;;4899913;29;19915;-90
2023/07/04 06:32:19;;;;;;;;;;;23.60;48.80;;;;;;4890110;29;20369;-89
2023/07/04 06:34:46;;;;;;;;;;;23.60;48.80;;;;;;4893515;29;20072;-89
2023/07/04 06:37:11;;;;;;;;;;;23.60;48.80;;;;;;4901138;29;20208;-89
2023/07/04 06:39:37;;;;;;;;;;;23.70;48.80;;;;;;4891381;29;19911;-89
2023/07/04 06:42:02;;;;;;;;;;;23.70;49.00;;;;;;4901488;29;20169;-89
2023/07/04 06:44:28;;;;;;;;;;;23.70;49.20;;;;;;4899815;29;20188;-89
2023/07/04 06:46:54;;;;;;;;;;;23.70;48.70;;;;;;4890861;29;19950;-88
2023/07/04 06:49:19;;;;;;;;;;;23.80;48.70;;;;;;4893539;29;19915;-88
2023/07/04 06:51:45;;;;;;;;;;;23.80;49.00;;;;;;4894283;29;19908;-89
2023/07/04 06:54:11;;;;;;;;;;;23.90;48.70;;;;;;4892288;29;20482;-90
2023/07/04 06:56:37;;;;;;;;;;;23.90;48.60;;;;;;4894078;29;20010;-89
2023/07/04 06:59:03;;;;;;;;;;;23.90;48.60;;;;;;4892714;29;20130;-89
2023/07/04 07:01:29;;;;;;;;;;;23.90;48.50;;;;;;4889654;29;19935;-89
2023/07/04 07:03:55;;;;;;;;;;;24.00;48.50;;;;;;4897784;29;19922;-88
2023/07/04 07:06:21;;;;;;;;;;;24.00;48.50;;;;;;4892015;29;19915;-88
2023/07/04 07:08:47;;;;;;;;;;;24.10;48.50;;;;;;4888969;29;19974;-88
2023/07/04 07:11:15;;;;;;;;;;;24.10;48.50;;;;;;4899286;29;19939;-89
2023/07/04 07:13:41;;;;;;;;;;;24.10;48.40;;;;;;4900710;29;20138;-90
2023/07/04 07:16:09;;;;;;;;;;;24.20;48.40;;;;;;4893489;29;20157;-89
2023/07/04 07:18:35;;;;;;;;;;;24.30;48.40;;;;;;4889459;29;19927;-88
2023/07/04 07:21:01;;;;;;;;;;;24.30;48.30;;;;;;4891035;29;19926;-89
2023/07/04 07:23:27;;;;;;;;;;;24.30;48.30;;;;;;4893635;29;19978;-89
2023/07/04 07:25:57;;;;;;;;;;;24.40;48.20;;;;;;4898006;29;19911;-88
2023/07/04 07:28:24;;;;;;;;;;;24.50;48.20;;;;;;4898369;29;20113;-88
2023/07/04 07:30:59;;;;;;;;;;;24.50;48.10;;;;;;4901956;29;19920;-88
2023/07/04 07:33:24;;;;;;;;;;;24.50;48.10;;;;;;4900675;29;19926;-89
2023/07/04 07:35:50;;;;;;;;;;;24.50;48.10;;;;;;4892811;29;19915;-88
2023/07/04 07:38:15;;;;;;;;;;;24.60;48.10;;;;;;4904231;29;20050;-89
2023/07/04 07:40:41;;;;;;;;;;;24.60;48.10;;;;;;4900209;29;20331;-88
2023/07/04 07:43:07;;;;;;;;;;;24.60;48.10;;;;;;4889453;29;19912;-88
2023/07/04 07:45:32;;;;;;;;;;;24.60;48.00;;;;;;4900718;29;20112;-88
2023/07/04 07:47:58;;;;;;;;;;;24.70;48.00;;;;;;4892209;29;19915;-88
2023/07/04 07:50:23;;;;;;;;;;;24.80;48.00;;;;;;4889223;29;20273;-88
2023/07/04 07:52:49;;;;;;;;;;;24.90;47.90;;;;;;4889612;29;19919;-88
2023/07/04 07:55:15;;;;;;;;;;;24.90;47.80;;;;;;4890580;29;19986;-88
2023/07/04 07:57:40;;;;;;;;;;;24.90;47.80;;;;;;4887035;29;19911;-89
2023/07/04 08:00:06;;;;;;;;;;;25.00;47.70;;;;;;4881188;29;20006;-88
2023/07/04 08:02:32;;;;;;;;;;;25.10;47.70;;;;;;4887831;29;20284;-88
2023/07/04 08:04:58;;;;;;;;;;;25.10;47.70;;;;;;4886699;29;19938;-88
2023/07/04 08:07:23;;;;;;;;;;;25.20;47.60;;;;;;4879528;29;20014;-88
2023/07/04 08:09:49;;;;;;;;;;;25.20;47.60;;;;;;4889612;29;19986;-88
2023/07/04 08:12:15;;;;;;;;;;;25.20;47.60;;;;;;4894283;29;19911;-88
2023/07/04 08:14:40;;;;;;;;;;;25.30;47.60;;;;;;4891510;29;20085;-89
2023/07/04 08:17:06;;;;;;;;;;;25.30;47.50;;;;;;4895686;29;19915;-88
2023/07/04 08:19:32;;;;;;;;;;;25.30;47.50;;;;;;4890071;29;19911;-89
2023/07/04 08:21:58;;;;;;;;;;;25.40;47.50;;;;;;4886272;29;20006;-88
2023/07/04 08:24:23;;;;;;;;;;;25.40;47.50;;;;;;4897237;29;19923;-88
2023/07/04 08:26:51;;;;;;;;;;;25.40;47.50;;;;;;4888426;29;19921;-88
2023/07/04 08:29:17;;;;;;;;;;;25.50;47.50;;;;;;4890861;29;20325;-88
2023/07/04 08:31:43;;;;;;;;;;;25.50;47.50;;;;;;4899872;29;19942;-88
2023/07/04 08:34:10;;;;;;;;;;;25.60;47.50;;;;;;4894694;29;20290;-88
2023/07/04 08:36:37;;;;;;;;;;;25.60;47.50;;;;;;4890382;29;19971;-88
2023/07/04 08:39:03;;;;;;;;;;;25.50;47.40;;;;;;4890016;29;19918;-89
2023/07/04 08:41:34;;;;;;;;;;;25.50;47.50;;;;;;4888168;29;19911;-89
2023/07/04 08:44:06;;;;;;;;;;;25.60;47.50;;;;;;4896220;29;20183;-89
2023/07/04 08:46:38;;;;;;;;;;;25.60;47.40;;;;;;4889475;29;19919;-88
2023/07/04 08:49:04;;;;;;;;;;;25.60;47.40;;;;;;4890498;29;19933;-88
2023/07/04 08:51:38;;;;;;;;;;;25.60;47.50;;;;;;4885928;29;20228;-88
2023/07/04 08:54:06;;;;;;;;;;;25.60;47.40;;;;;;4880630;29;19943;-91
2023/07/04 08:56:36;;;;;;;;;;;25.70;47.40;;;;;;4885949;29;19967;-88
2023/07/04 08:59:21;;;;;;;;;;;25.70;47.40;;;;;;4887419;29;19911;-89
2023/07/04 09:02:07;;;;;;;;;;;25.80;47.40;;;;;;4893286;29;19942;-89
2023/07/04 09:04:51;;;;;;;;;;;25.70;47.30;;;;;;4899064;29;20153;-90
2023/07/04 09:07:29;;;;;;;;;;;25.70;47.40;;;;;;4881143;29;20006;-90
2023/07/04 09:10:15;;;;;;;;;;;25.80;47.40;;;;;;4893384;29;19963;-89
2023/07/04 09:12:41;;;;;;;;;;;25.80;47.50;;;;;;4889602;29;19915;-88
2023/07/04 09:15:27;;;;;;;;;;;25.80;47.40;;;;;;4899508;29;20037;-89
2023/07/04 09:17:59;;;;;;;;;;;25.80;47.40;;;;;;4898206;29;20083;-89
2023/07/04 09:20:27;;;;;;;;;;;25.90;47.40;;;;;;4896974;29;19971;-88
2023/07/04 09:22:54;;;;;;;;;;;25.90;47.40;;;;;;4883275;29;19935;-89
2023/07/04 09:25:20;;;;;;;;;;;25.90;47.30;;;;;;4889679;29;20050;-90
2023/07/04 09:27:45;;;;;;;;;;;25.90;47.30;;;;;;4900583;29;19919;-89
2023/07/04 09:30:12;;;;;;;;;;;26.00;47.40;;;;;;4890314;29;19911;-91
2023/07/04 09:32:38;;;;;;;;;;;26.00;47.40;;;;;;4878915;29;19911;-88
2023/07/04 09:35:05;;;;;;;;;;;26.00;47.40;;;;;;4888388;29;19922;-89
2023/07/04 09:37:31;;;;;;;;;;;26.00;47.40;;;;;;4901535;29;19911;-89
2023/07/04 09:39:58;;;;;;;;;;;26.00;47.40;;;;;;4888850;29;20106;-89
2023/07/04 09:42:25;;;;;;;;;;;26.00;47.40;;;;;;4881950;29;19963;-89
2023/07/04 09:44:55;;;;;;;;;;;26.00;47.40;;;;;;4891499;29;19930;-88
2023/07/04 09:47:25;;;;;;;;;;;26.00;47.40;;;;;;4895786;29;19915;-89
2023/07/04 09:50:07;;;;;;;;;;;26.10;47.40;;;;;;4878986;29;19915;-90
2023/07/04 09:52:33;;;;;;;;;;;26.10;47.40;;;;;;4898879;29;19922;-89
2023/07/04 09:55:13;;;;;;;;;;;26.20;47.40;;;;;;4896321;29;19919;-88
2023/07/04 09:57:48;;;;;;;;;;;26.20;47.40;;;;;;4896129;29;19978;-90
2023/07/04 10:00:19;;;;;;;;;;;26.20;47.40;;;;;;4897531;29;20150;-89
2023/07/04 10:02:46;;;;;;;;;;;26.20;47.30;;;;;;4880930;29;20455;-90
2023/07/04 10:05:22;;;;;;;;;;;26.20;47.30;;;;;;4889916;29;20235;-90
2023/07/04 10:07:58;;;;;;;;;;;26.20;47.40;;;;;;4887186;29;20332;-90
2023/07/04 10:10:24;;;;;;;;;;;26.30;47.40;;;;;;4886463;29;19912;-88
2023/07/04 10:12:50;;;;;;;;;;;26.30;47.40;;;;;;4886327;29;19922;-89
2023/07/04 10:15:27;;;;;;;;;;;26.20;47.30;;;;;;4884650;29;20341;-89
2023/07/04 10:17:53;;;;;;;;;;;26.30;47.40;;;;;;4874033;29;19919;-89
2023/07/04 10:20:19;;;;;;;;;;;26.30;47.40;;;;;;4891828;29;19974;-89
2023/07/04 10:22:52;;;;;;;;;;;26.30;47.40;;;;;;4907877;29;19924;-88
2023/07/04 10:25:21;;;;;;;;;;;26.30;47.50;;;;;;4889583;29;20090;-89
2023/07/04 10:27:48;;;;;;;;;;;26.30;47.50;;;;;;4902037;29;20272;-89
2023/07/04 10:30:20;;;;;;;;;;;26.30;47.50;;;;;;4893914;29;19925;-87
2023/07/04 10:32:48;;;;;;;;;;;26.30;47.40;;;;;;4890631;29;19950;-88
2023/07/04 10:35:18;;;;;;;;;;;26.30;47.40;;;;;;4897320;29;19912;-88
2023/07/04 10:37:46;;;;;;;;;;;26.30;47.40;;;;;;4893702;29;20165;-88
2023/07/04 10:40:19;;;;;;;;;;;26.40;47.50;;;;;;4890212;29;19942;-88
2023/07/04 10:43:01;;;;;;;;;;;26.40;47.50;;;;;;4896965;29;20173;-89
2023/07/04 10:45:27;;;;;;;;;;;26.40;47.80;;;;;;4882714;29;19963;-90
2023/07/04 10:47:54;;;;;;;;;;;26.40;47.40;;;;;;4899718;29;20024;-89
2023/07/04 10:50:22;;;;;;;;;;;26.40;47.50;;;;;;4903513;29;20208;-90
2023/07/04 10:52:48;;;;;;;;;;;26.40;47.40;;;;;;4899418;29;20064;-88
2023/07/04 10:55:15;;;;;;;;;;;26.40;47.50;;;;;;4903005;29;20006;-88
2023/07/04 10:57:44;;;;;;;;;;;26.40;47.50;;;;;;4892228;29;20233;-89
2023/07/04 11:00:17;;;;;;;;;;;26.50;47.50;;;;;;4890703;29;20162;-89
2023/07/04 11:02:46;;;;;;;;;;;26.50;47.50;;;;;;4892630;29;19911;-88
2023/07/04 11:05:16;;;;;;;;;;;26.50;47.50;;;;;;4899457;29;19941;-89
2023/07/04 11:07:43;;;;;;;;;;;26.50;47.50;;;;;;4894079;29;20006;-89
2023/07/04 11:10:10;;;;;;;;;;;26.50;47.50;;;;;;4892068;29;20085;-89
2023/07/04 11:12:37;;;;;;;;;;;26.50;47.50;;;;;;4898513;29;19994;-88
2023/07/04 11:15:05;;;;;;;;;;;26.50;47.50;;;;;;4883773;29;19979;-88
2023/07/04 11:17:34;;;;;;;;;;;26.50;47.60;;;;;;4894561;29;19993;-88
2023/07/04 11:20:13;;;;;;;;;;;26.50;47.60;;;;;;4890817;29;19978;-88
2023/07/04 11:22:51;;;;;;;;;;;26.50;47.60;;;;;;4883718;29;20056;-88
2023/07/04 11:25:33;;;;;;;;;;;26.50;47.60;;;;;;4899406;29;19962;-89
2023/07/04 11:28:19;;;;;;;;;;;26.60;47.70;;;;;;4884349;29;20292;-88
2023/07/04 11:30:55;;;;;;;;;;;26.60;47.70;;;;;;4899852;29;20047;-88
2023/07/04 11:33:40;;;;;;;;;;;26.60;47.60;;;;;;4893455;29;20130;-88
2023/07/04 11:36:07;;;;;;;;;;;26.60;47.60;;;;;;4887662;29;20237;-89
2023/07/04 11:38:36;;;;;;;;;;;26.60;47.60;;;;;;4891576;29;19911;-90
2023/07/04 11:41:03;;;;;;;;;;;26.60;47.60;;;;;;4889763;29;19934;-88
2023/07/04 11:43:32;;;;;;;;;;;26.60;47.60;;;;;;4898331;29;19911;-88
2023/07/04 11:45:58;;;;;;;;;;;26.60;47.60;;;;;;4900680;29;19958;-89
2023/07/04 11:48:28;;;;;;;;;;;26.60;47.70;;;;;;4894246;29;19950;-89
2023/07/04 11:51:04;;;;;;;;;;;26.60;47.70;;;;;;4899363;29;19923;-88
2023/07/04 11:53:48;;;;;;;;;;;26.60;47.70;;;;;;4894813;29;19912;-89
2023/07/04 11:56:26;;;;;;;;;;;26.60;47.70;;;;;;4885812;29;20154;-89
2023/07/04 11:59:11;;;;;;;;;;;26.60;47.70;;;;;;4882152;29;20240;-88
2023/07/04 12:01:51;;;;;;;;;;;26.60;47.70;;;;;;4882237;29;19911;-88
2023/07/04 12:04:21;;;;;;;;;;;26.60;47.70;;;;;;4898897;29;19922;-89
2023/07/04 12:06:50;;;;;;;;;;;26.70;47.80;;;;;;4883659;29;19912;-89
2023/07/04 12:09:22;;;;;;;;;;;26.70;47.70;;;;;;4891283;29;19911;-88
2023/07/04 12:11:49;;;;;;;;;;;26.70;47.70;;;;;;4890054;29;20177;-88
2023/07/04 12:14:16;;;;;;;;;;;26.70;47.70;;;;;;4890079;29;20276;-89
2023/07/04 12:16:44;;;;;;;;;;;26.70;47.80;;;;;;4899863;29;19978;-89
2023/07/04 12:19:17;;;;;;;;;;;26.70;47.80;;;;;;4893557;29;20307;-88
2023/07/04 12:21:43;;;;;;;;;;;26.70;47.80;;;;;;4894287;29;19911;-89
2023/07/04 12:24:11;;;;;;;;;;;26.70;47.80;;;;;;4888308;29;20421;-88
2023/07/04 12:26:36;;;;;;;;;;;26.70;47.80;;;;;;4889648;29;20159;-89
2023/07/04 12:29:03;;;;;;;;;;;26.70;47.80;;;;;;4887894;29;20363;-89
2023/07/04 12:31:29;;;;;;;;;;;26.70;47.80;;;;;;4888267;29;20010;-90
2023/07/04 12:33:54;;;;;;;;;;;26.70;47.80;;;;;;4896676;29;20006;-88
2023/07/04 12:36:22;;;;;;;;;;;26.80;47.90;;;;;;4896870;29;19942;-90
2023/07/04 12:38:49;;;;;;;;;;;26.70;47.80;;;;;;4890179;29;20165;-89
2023/07/04 12:41:16;;;;;;;;;;;26.70;47.80;;;;;;4899862;29;19915;-89
2023/07/04 12:43:41;;;;;;;;;;;26.80;47.90;;;;;;4892465;29;20029;-89
2023/07/04 12:46:11;;;;;;;;;;;26.70;47.90;;;;;;4891755;29;19971;-89
2023/07/04 12:48:37;;;;;;;;;;;26.70;47.90;;;;;;4897775;29;19998;-89
2023/07/04 12:51:06;;;;;;;;;;;26.70;47.90;;;;;;4890873;29;19919;-89
2023/07/04 12:53:33;;;;;;;;;;;26.80;48.00;;;;;;4899994;29;20188;-88
2023/07/04 12:56:10;;;;;;;;;;;26.80;48.00;;;;;;4883118;29;19907;-88
2023/07/04 12:58:39;;;;;;;;;;;26.70;48.00;;;;;;4897914;29;19972;-89
2023/07/04 13:01:06;;;;;;;;;;;26.70;48.00;;;;;;4892681;29;19912;-88
2023/07/04 13:03:32;;;;;;;;;;;26.70;48.00;;;;;;4899114;29;19935;-88
2023/07/04 13:05:58;;;;;;;;;;;26.70;48.00;;;;;;4887755;29;19938;-88
2023/07/04 13:08:25;;;;;;;;;;;26.70;48.10;;;;;;4879180;29;20273;-89
2023/07/04 13:10:58;;;;;;;;;;;26.70;48.10;;;;;;4888283;29;19915;-88
2023/07/04 13:13:27;;;;;;;;;;;26.70;48.20;;;;;;4889701;29;19919;-88
2023/07/04 13:16:09;;;;;;;;;;;26.70;48.10;;;;;;4881412;29;19987;-88
2023/07/04 13:18:38;;;;;;;;;;;26.70;48.20;;;;;;4890383;29;20006;-88
2023/07/04 13:21:03;;;;;;;;;;;26.70;48.20;;;;;;4895476;29;19973;-88
2023/07/04 13:23:32;;;;;;;;;;;26.70;48.20;;;;;;4884183;29;19920;-88
2023/07/04 13:25:57;;;;;;;;;;;26.70;48.20;;;;;;4884381;29;20463;-88
2023/07/04 13:28:27;;;;;;;;;;;26.70;48.20;;;;;;4897212;29;19922;-89
2023/07/04 13:31:13;;;;;;;;;;;26.70;48.20;;;;;;4895942;29;19993;-88
2023/07/04 13:33:38;;;;;;;;;;;26.70;48.20;;;;;;4875728;29;20196;-88
2023/07/04 13:36:06;;;;;;;;;;;26.70;48.20;;;;;;4889337;29;20261;-88
2023/07/04 13:38:33;;;;;;;;;;;26.70;48.20;;;;;;4892838;29;20372;-88
2023/07/04 13:41:00;;;;;;;;;;;26.70;48.20;;;;;;4883118;29;19919;-88
2023/07/04 13:43:26;;;;;;;;;;;26.70;48.20;;;;;;4895260;29;19911;-88
2023/07/04 13:45:51;;;;;;;;;;;26.70;48.20;;;;;;4889055;29;19911;-88
2023/07/04 13:48:17;;;;;;;;;;;26.70;48.20;;;;;;4895864;29;19919;-88
2023/07/04 13:50:44;;;;;;;;;;;26.70;48.20;;;;;;4893472;29;20261;-88
2023/07/04 13:53:09;;;;;;;;;;;26.80;48.30;;;;;;4882975;29;19918;-88
2023/07/04 13:55:35;;;;;;;;;;;26.80;48.30;;;;;;4880818;29;19911;-88
2023/07/04 13:58:01;;;;;;;;;;;26.80;48.30;;;;;;4885974;29;19975;-89
2023/07/04 14:00:27;;;;;;;;;;;26.80;48.30;;;;;;4894042;29;19921;-90
2023/07/04 14:02:53;;;;;;;;;;;26.80;48.30;;;;;;4893167;29;19958;-88
2023/07/04 14:05:18;;;;;;;;;;;26.80;48.30;;;;;;4889999;29;20014;-87
2023/07/04 14:07:46;;;;;;;;;;;26.80;48.30;;;;;;4881706;29;20029;-88
2023/07/04 14:10:12;;;;;;;;;;;26.80;48.30;;;;;;4892519;29;20536;-88
2023/07/04 14:12:38;;;;;;;;;;;26.70;48.30;;;;;;4890312;29;19912;-88
2023/07/04 14:15:08;;;;;;;;;;;26.70;48.30;;;;;;4888677;29;20141;-88
2023/07/04 14:17:33;;;;;;;;;;;26.70;48.30;;;;;;4890620;29;20434;-87
2023/07/04 14:19:59;;;;;;;;;;;26.80;48.40;;;;;;4888783;29;19947;-88